Annette Island, AK

10:03 AM AKDT on August 21, 2014 (GMT -0800)
Hydaburg | Change Station
CLOSE
Current Station
Airport
Location: Hydaburg,
Elevation: 0 ft
Nearby Weather Stations

Elev 0 ft 55.21 °N, 132.83 °W | Updated 7 minutes ago

Clear
Clear
61 °F
Feels Like 61 °F
N
0
Wind Variable Wind from North

Today
High -- | Low -- °F
--% Chance of Precip.
Yesterday
High -- | Low -- °F
Precip. -- in
5:32 AM 8:05 PM
Waning Crescent, 13% visible
Pressure 30.06 in
Visibility 10.0 miles
Clouds Clear
Dew Point 46 °F
Humidity 59%
Rainfall 0.00 in
Snow Depth Not available.
UV 4 out of 12
Pollen Not available.
Air Quality Not available.
Flu Activity Not available.
METAR PAHY 211756Z AUTO 00000KT 10SM CLR 16/08 A3006 RMK AO1 10160 20100

More Conditions Fewer Conditions

Pressure 30.06 in
Visibility 10.0 miles
Clouds Clear
Dew Point 46 °F
Humidity 59%
Rainfall 0.00 in
Snow Depth Not available.
UV 4 out of 12
Pollen Not available.
Air Quality Not available.
Flu Activity Not available.
METAR PAHY 211756Z AUTO 00000KT 10SM CLR 16/08 A3006 RMK AO1 10160 20100

More Conditions Fewer Conditions

10-Day Weather Forecast

Almanac

Astronomy

Aug. 21, 2014 Rise Set
Actual Time 5:32 AM AKDT 8:05 PM AKDT
Civil Twilight 4:51 AM AKDT 8:45 PM AKDT
Nautical Twilight 3:59 AM AKDT 9:37 PM AKDT
Astronomical Twilight 2:53 AM AKDT 10:41 PM AKDT
Moon 1:51 AM AKDT 5:52 PM AKDT
Length of Visible Light 15h 53m
Length of Day
14h 32m
Tomorrow will be 4m 15s shorter.
Waning Crescent, 13% of the Moon is Illuminated
Today
Waning Crescent
Aug 25
New
Sep 2
First Quarter
Sep 8
Full
Sep 15
Last Quarter

Today's Extremes

State Highs State Lows

Community

WunderPhotos

Upload Photos

1,745,987 photos uploaded!

WunderBlogs® & News

Nearby

Snow Depth

Station Depth Elevation
Long Lake 0 in 820 ft
Upper Tsaina River 0 in 1750 ft
Moraine 0 in 2100 ft
Nuka Glacier 164 in 1250 ft
Grouse Creek Divide 0 in 700 ft

Earthquake Activity

City Distance Mag. Time & Date
No recent earthquake activity has been reported nearby.
Minimum magnitude displayed is 2.5.

Coastal Water Temperatures

Place Temperature
No Stations Reporting

Nearby Weather Stations